Time;durP1;ratioP1;P1;durP2;ratioP2;P2;SDS_P1;SDS_P2;PMS_P1;PMS_P2;Temp;Humidity;BMP_temperature;BMP_pressure;BME280_temperature;BME280_humidity;BME280_pressure;Samples;Min_cycle;Max_cycle;Signal;HPM_P1;HPM_P2
2022/03/17 00:01:04;;;;;;;63.75;27.83;;;3.10;99.90;;;;;;5053790;28;20470;-61
2022/03/17 00:03:29;;;;;;;51.10;25.40;;;3.00;99.90;;;;;;5054235;28;20063;-61
2022/03/17 00:05:55;;;;;;;60.03;28.73;;;3.00;99.90;;;;;;5053855;28;20151;-61
2022/03/17 00:08:21;;;;;;;61.80;27.42;;;2.90;99.90;;;;;;5052297;28;20124;-61
2022/03/17 00:10:47;;;;;;;52.83;26.73;;;2.90;99.90;;;;;;5053080;28;20104;-61
2022/03/17 00:13:12;;;;;;;55.83;26.92;;;2.90;99.90;;;;;;5053541;28;20456;-61
2022/03/17 00:15:41;;;;;;;52.78;27.50;;;2.80;99.90;;;;;;5053801;28;20029;-61
2022/03/17 00:18:07;;;;;;;54.25;25.25;;;2.80;99.90;;;;;;5052978;28;20126;-61
2022/03/17 00:20:33;;;;;;;54.28;27.05;;;2.70;99.90;;;;;;5052711;28;20037;-61
2022/03/17 00:22:59;;;;;;;57.40;28.15;;;2.60;99.90;;;;;;5053756;28;20465;-61
2022/03/17 00:25:26;;;;;;;55.63;25.85;;;2.60;99.90;;;;;;5053785;28;20094;-61
2022/03/17 00:27:52;;;;;;;55.03;26.98;;;2.50;99.90;;;;;;5053831;28;20036;-61
2022/03/17 00:30:17;;;;;;;57.40;26.23;;;2.50;99.90;;;;;;5052358;28;20059;-61
2022/03/17 00:32:43;;;;;;;53.35;27.13;;;2.50;99.90;;;;;;5052348;28;20078;-61
2022/03/17 00:37:54;;;;;;;57.17;26.77;;;2.30;99.90;;;;;;5053354;28;20036;-61
2022/03/17 00:40:20;;;;;;;54.47;27.83;;;2.40;99.90;;;;;;5053808;28;20029;-60
2022/03/17 00:42:46;;;;;;;55.03;26.33;;;2.30;99.90;;;;;;5053550;28;20029;-61
2022/03/17 00:45:12;;;;;;;56.22;27.85;;;2.20;99.90;;;;;;5053451;28;20037;-61
2022/03/17 00:47:38;;;;;;;54.22;27.20;;;2.20;99.90;;;;;;5052239;28;20116;-61
2022/03/17 00:50:06;;;;;;;57.38;27.70;;;2.10;99.90;;;;;;5053467;28;20035;-61
2022/03/17 00:52:31;;;;;;;60.35;28.80;;;2.10;99.90;;;;;;5054002;28;20112;-62
2022/03/17 00:54:57;;;;;;;58.50;30.13;;;2.10;99.90;;;;;;5053114;28;20107;-61
2022/03/17 00:57:23;;;;;;;56.08;27.48;;;2.10;99.90;;;;;;5053369;28;20057;-61
2022/03/17 00:59:49;;;;;;;59.00;27.90;;;2.00;99.90;;;;;;5053222;28;20029;-61
2022/03/17 01:02:16;;;;;;;57.33;26.95;;;1.90;99.90;;;;;;5053442;28;20026;-66
2022/03/17 01:04:42;;;;;;;56.40;26.67;;;2.00;99.90;;;;;;5052063;28;20445;-61
2022/03/17 01:07:07;;;;;;;57.47;26.27;;;1.90;99.90;;;;;;5051967;28;20049;-61
2022/03/17 01:09:33;;;;;;;59.40;28.02;;;1.90;99.90;;;;;;5052378;28;20029;-62
2022/03/17 01:11:59;;;;;;;57.83;28.35;;;1.90;99.90;;;;;;5053346;28;20021;-61
2022/03/17 01:14:25;;;;;;;56.08;27.35;;;1.80;99.90;;;;;;5051952;28;20036;-61
2022/03/17 01:16:51;;;;;;;59.85;28.08;;;1.80;99.90;;;;;;5052905;28;20028;-61
2022/03/17 01:19:20;;;;;;;56.25;27.88;;;1.80;99.90;;;;;;5051929;28;20060;-61
2022/03/17 01:21:48;;;;;;;56.65;29.45;;;2.60;99.90;;;;;;5053317;28;20052;-61
2022/03/17 01:24:14;;;;;;;60.92;29.55;;;1.80;99.90;;;;;;5055454;28;20082;-61
2022/03/17 01:26:40;;;;;;;61.85;28.17;;;2.10;99.90;;;;;;5057011;28;20033;-61
2022/03/17 01:29:05;;;;;;;61.13;29.25;;;1.80;99.90;;;;;;5056992;28;20031;-61
2022/03/17 01:31:31;;;;;;;59.17;28.83;;;1.80;99.90;;;;;;5057154;28;20104;-61
2022/03/17 01:33:58;;;;;;;60.83;28.45;;;1.80;99.90;;;;;;5056910;28;20036;-61
2022/03/17 01:36:24;;;;;;;60.65;28.73;;;1.80;99.90;;;;;;5056915;28;20029;-61
2022/03/17 01:38:49;;;;;;;60.38;29.33;;;1.70;99.90;;;;;;5056585;28;20025;-61
2022/03/17 01:41:15;;;;;;;61.20;29.20;;;1.70;99.90;;;;;;5055461;28;20083;-61
2022/03/17 01:43:41;;;;;;;64.93;28.55;;;1.70;99.90;;;;;;5056232;28;20527;-62
2022/03/17 01:46:07;;;;;;;56.85;27.77;;;1.70;99.90;;;;;;5055148;28;20377;-61
2022/03/17 01:48:33;;;;;;;58.40;28.40;;;1.60;99.90;;;;;;5055122;28;20037;-61
2022/03/17 01:50:58;;;;;;;59.42;28.13;;;1.60;99.90;;;;;;5056043;28;20028;-61
2022/03/17 01:53:24;;;;;;;53.95;26.95;;;1.50;99.90;;;;;;5056590;28;20025;-61
2022/03/17 01:55:50;;;;;;;57.63;26.75;;;1.50;99.90;;;;;;5056027;28;20036;-61
2022/03/17 01:58:17;;;;;;;54.17;26.17;;;1.50;99.90;;;;;;5054924;28;20029;-61
2022/03/17 02:00:45;;;;;;;53.92;26.08;;;1.40;99.90;;;;;;5055878;28;20477;-61
2022/03/17 02:03:11;;;;;;;49.53;24.95;;;1.40;99.90;;;;;;5056068;28;20029;-61
2022/03/17 02:05:38;;;;;;;56.88;27.15;;;2.30;99.90;;;;;;5056054;28;20075;-61
2022/03/17 02:08:07;;;;;;;53.80;26.42;;;1.30;99.90;;;;;;5054359;28;20045;-61
2022/03/17 02:13:08;;;;;;;59.03;27.23;;;1.30;99.90;;;;;;5054861;28;20060;-61
2022/03/17 02:13:18;;;;;;;56.20;25.83;;;1.20;99.90;;;;;;5055526;28;20041;-61
2022/03/17 02:15:53;;;;;;;53.35;25.10;;;1.30;99.90;;;;;;5056245;28;20142;-61
2022/03/17 02:18:20;;;;;;;59.83;28.67;;;1.10;99.90;;;;;;5055977;28;20029;-61
2022/03/17 02:20:46;;;;;;;59.88;25.75;;;1.10;99.90;;;;;;5055549;28;20025;-61
2022/03/17 02:26:19;;;;;;;55.75;26.88;;;1.10;99.90;;;;;;5033953;28;20061;-61
2022/03/17 02:28:46;;;;;;;62.90;27.52;;;1.10;99.90;;;;;;5033454;28;20120;-61
2022/03/17 02:31:12;;;;;;;56.53;27.38;;;1.80;99.90;;;;;;5043577;28;20028;-60
2022/03/17 02:33:40;;;;;;;55.92;26.90;;;1.00;99.90;;;;;;5054930;28;20507;-62
2022/03/17 02:36:08;;;;;;;58.92;25.88;;;0.90;99.90;;;;;;5055264;28;20446;-61
2022/03/17 02:38:33;;;;;;;60.63;28.88;;;0.90;99.90;;;;;;5055534;28;20063;-64
2022/03/17 02:40:59;;;;;;;59.78;27.27;;;0.90;99.90;;;;;;5055414;28;20033;-61
2022/03/17 02:43:26;;;;;;;55.80;27.60;;;1.30;99.90;;;;;;5054059;28;20075;-61
2022/03/17 02:45:52;;;;;;;60.28;27.58;;;1.90;99.90;;;;;;5055794;28;20056;-61
2022/03/17 02:48:18;;;;;;;59.92;26.98;;;0.90;99.90;;;;;;5055216;28;20071;-61
2022/03/17 02:50:45;;;;;;;62.00;28.00;;;0.90;99.90;;;;;;5055229;28;20056;-61
2022/03/17 02:53:11;;;;;;;59.08;29.00;;;0.90;99.90;;;;;;5055390;28;20056;-61
2022/03/17 02:55:39;;;;;;;62.83;28.92;;;0.90;99.90;;;;;;5054186;28;20498;-61
2022/03/17 02:58:07;;;;;;;40.67;20.05;;;0.90;99.90;;;;;;5055121;28;20104;-60
2022/03/17 03:00:34;;;;;;;62.40;28.13;;;1.30;99.90;;;;;;5055032;28;20053;-61
2022/03/17 03:03:00;;;;;;;64.63;29.38;;;0.90;99.90;;;;;;5054969;28;20039;-61
2022/03/17 03:05:26;;;;;;;55.83;26.15;;;1.00;99.90;;;;;;5054916;28;20033;-61
2022/03/17 03:07:53;;;;;;;61.00;28.63;;;3.30;99.90;;;;;;5053144;28;20103;-61
2022/03/17 03:10:18;;;;;;;62.40;27.42;;;0.90;99.90;;;;;;5054915;28;20047;-61
2022/03/17 03:12:44;;;;;;;57.75;27.60;;;0.90;99.90;;;;;;5054540;28;20028;-61
2022/03/17 03:15:09;;;;;;;61.15;27.63;;;0.90;99.90;;;;;;5053609;28;20389;-61
2022/03/17 03:17:35;;;;;;;57.42;26.92;;;1.30;99.90;;;;;;5054639;28;20029;-61
2022/03/17 03:20:01;;;;;;;58.10;27.52;;;0.90;99.90;;;;;;5054871;28;20033;-61
2022/03/17 03:22:29;;;;;;;60.38;26.67;;;0.80;99.90;;;;;;5053344;28;20457;-61
2022/03/17 03:24:57;;;;;;;60.75;27.70;;;1.20;99.90;;;;;;5053524;28;20135;-61
2022/03/17 03:27:27;;;;;;;56.45;26.92;;;0.80;99.90;;;;;;5054566;28;20025;-61
2022/03/17 03:29:56;;;;;;;59.42;26.98;;;1.20;99.90;;;;;;5054458;28;20033;-61
2022/03/17 03:32:23;;;;;;;59.08;26.58;;;1.70;99.90;;;;;;5053111;28;20029;-61
2022/03/17 03:34:50;;;;;;;56.65;26.65;;;0.80;99.90;;;;;;5054393;28;20082;-61
2022/03/17 03:37:34;;;;;;;58.17;28.08;;;0.90;99.90;;;;;;5054424;28;20033;-61
2022/03/17 03:40:00;;;;;;;57.30;26.15;;;0.80;99.90;;;;;;5054039;28;20057;-61
2022/03/17 03:42:26;;;;;;;62.30;27.85;;;0.80;99.90;;;;;;5054251;28;20025;-61
2022/03/17 03:44:52;;;;;;;61.95;27.70;;;0.80;99.90;;;;;;5053478;28;20175;-62
2022/03/17 03:47:18;;;;;;;58.00;26.67;;;0.80;99.90;;;;;;5053065;28;20087;-61
2022/03/17 03:49:44;;;;;;;54.20;25.77;;;0.80;99.90;;;;;;5054212;28;20029;-61
2022/03/17 03:52:12;;;;;;;62.17;26.58;;;0.80;99.90;;;;;;5052829;28;20040;-62
2022/03/17 03:54:38;;;;;;;55.58;25.13;;;0.80;99.90;;;;;;5054105;28;20033;-61
2022/03/17 03:57:04;;;;;;;56.22;27.20;;;2.10;99.90;;;;;;5052504;28;20028;-61
2022/03/17 03:59:30;;;;;;;60.10;26.77;;;0.80;99.90;;;;;;5052453;28;20123;-61
2022/03/17 04:02:07;;;;;;;55.70;26.23;;;0.80;99.90;;;;;;5054010;28;20080;-61
2022/03/17 04:04:36;;;;;;;56.75;25.65;;;0.70;99.90;;;;;;5054071;28;20037;-61
2022/03/17 04:07:04;;;;;;;60.67;27.05;;;0.70;99.90;;;;;;5053893;28;20052;-61
2022/03/17 04:09:35;;;;;;;51.05;25.52;;;0.70;99.90;;;;;;5054235;28;20419;-61
2022/03/17 04:12:02;;;;;;;59.03;27.27;;;0.70;99.90;;;;;;5054095;28;20113;-61
2022/03/17 04:14:28;;;;;;;58.72;28.65;;;0.60;99.90;;;;;;5052573;28;20036;-61
2022/03/17 04:16:54;;;;;;;55.22;25.92;;;0.70;99.90;;;;;;5052646;28;20025;-61
2022/03/17 04:19:19;;;;;;;52.92;26.25;;;0.60;99.90;;;;;;5052511;28;20029;-61
2022/03/17 04:21:47;;;;;;;57.45;26.45;;;0.60;99.90;;;;;;5054111;28;20079;-61
2022/03/17 04:24:13;;;;;;;54.05;24.70;;;0.60;99.90;;;;;;5052419;28;20469;-61
2022/03/17 04:26:39;;;;;;;54.75;26.35;;;1.50;99.90;;;;;;5053747;28;20453;-61
2022/03/17 04:29:06;;;;;;;54.17;25.60;;;0.60;99.90;;;;;;5053921;28;20104;-61
2022/03/17 04:31:33;;;;;;;61.55;27.30;;;0.60;99.90;;;;;;5053718;28;20029;-62
2022/03/17 04:33:58;;;;;;;56.80;26.75;;;0.60;99.90;;;;;;5053658;28;20029;-61
2022/03/17 04:36:24;;;;;;;61.53;27.15;;;0.90;99.90;;;;;;5053464;28;20028;-61
2022/03/17 04:38:50;;;;;;;53.58;25.90;;;0.60;99.90;;;;;;5053632;28;20033;-61
2022/03/17 04:41:17;;;;;;;55.97;25.08;;;0.50;99.90;;;;;;5053285;28;20388;-61
2022/03/17 04:43:43;;;;;;;56.80;25.85;;;1.10;99.90;;;;;;5053581;28;20029;-63
2022/03/17 04:46:08;;;;;;;53.03;25.77;;;0.50;99.90;;;;;;5053830;28;20442;-61
2022/03/17 04:48:34;;;;;;;50.53;25.45;;;1.90;99.90;;;;;;5053176;28;20511;-61
2022/03/17 04:51:00;;;;;;;54.70;26.33;;;0.50;99.90;;;;;;5053724;28;20075;-61
2022/03/17 04:53:32;;;;;;;58.72;26.67;;;0.50;99.90;;;;;;5053168;28;20461;-61
2022/03/17 04:56:00;;;;;;;56.72;26.00;;;0.50;99.90;;;;;;5054424;28;20384;-61
2022/03/17 04:58:28;;;;;;;58.63;25.58;;;0.50;99.90;;;;;;5056444;28;20366;-61
2022/03/17 05:00:55;;;;;;;53.00;25.60;;;2.90;99.90;;;;;;5056079;28;20099;-61
2022/03/17 05:03:21;;;;;;;59.97;27.48;;;0.50;99.90;;;;;;5055920;28;20032;-60
2022/03/17 05:05:48;;;;;;;58.08;26.15;;;0.50;99.90;;;;;;5056393;28;20075;-60
2022/03/17 05:08:14;;;;;;;59.80;25.52;;;0.50;99.90;;;;;;5055765;28;20056;-60
2022/03/17 05:10:44;;;;;;;61.38;28.52;;;0.50;99.90;;;;;;5057117;28;20033;-60
2022/03/17 05:13:11;;;;;;;62.00;26.63;;;0.50;99.90;;;;;;5055802;28;20385;-60
2022/03/17 05:15:38;;;;;;;58.33;27.45;;;0.50;99.90;;;;;;5055809;28;20025;-60
2022/03/17 05:18:06;;;;;;;60.72;26.73;;;0.60;99.90;;;;;;5056993;28;20535;-60
2022/03/17 05:20:33;;;;;;;43.83;19.35;;;0.50;99.90;;;;;;5055404;28;20032;-61
2022/03/17 05:22:59;;;;;;;68.85;29.48;;;0.50;99.90;;;;;;5056895;28;20457;-62
2022/03/17 05:25:24;;;;;;;59.67;26.45;;;0.50;99.90;;;;;;5057051;28;20032;-62
2022/03/17 05:27:50;;;;;;;53.88;26.50;;;0.50;99.90;;;;;;5056823;28;20028;-61
2022/03/17 05:30:18;;;;;;;58.63;26.38;;;0.50;99.90;;;;;;5056466;28;20033;-61
2022/03/17 05:32:45;;;;;;;58.92;27.92;;;0.60;99.90;;;;;;5056680;28;20032;-63
2022/03/17 05:35:12;;;;;;;59.58;28.50;;;0.60;99.90;;;;;;5056748;28;20358;-61
2022/03/17 05:37:39;;;;;;;57.95;27.70;;;0.60;99.90;;;;;;5056891;28;20029;-61
2022/03/17 05:40:13;;;;;;;56.75;26.90;;;0.60;99.90;;;;;;5055394;28;20035;-61
2022/03/17 05:42:43;;;;;;;63.17;28.17;;;0.60;99.90;;;;;;5056608;28;20059;-61
2022/03/17 05:45:10;;;;;;;61.20;28.40;;;0.70;99.90;;;;;;5056083;28;20064;-61
2022/03/17 05:47:40;;;;;;;62.45;27.00;;;0.70;99.90;;;;;;5056470;28;20075;-61
2022/03/17 05:50:13;;;;;;;59.20;26.77;;;0.70;99.90;;;;;;5056420;28;20068;-61
2022/03/17 05:52:39;;;;;;;59.10;26.80;;;0.70;99.90;;;;;;5056508;28;20025;-60
2022/03/17 05:55:09;;;;;;;58.53;27.10;;;2.00;99.90;;;;;;5056311;28;20112;-61
2022/03/17 05:57:36;;;;;;;57.92;28.08;;;0.90;99.90;;;;;;5055017;28;20025;-61
2022/03/17 06:00:04;;;;;;;58.00;27.55;;;0.90;99.90;;;;;;5054936;28;20028;-61
2022/03/17 06:02:30;;;;;;;56.70;27.67;;;0.90;99.90;;;;;;5056422;28;20025;-61
2022/03/17 06:04:56;;;;;;;64.68;28.13;;;1.10;99.90;;;;;;5054477;28;20396;-61
2022/03/17 06:07:21;;;;;;;58.90;28.65;;;1.10;99.90;;;;;;5055076;28;20087;-61
2022/03/17 06:09:47;;;;;;;61.42;27.70;;;3.40;99.90;;;;;;5056243;28;20449;-63
2022/03/17 06:12:15;;;;;;;60.70;28.00;;;1.20;99.90;;;;;;5056033;28;20084;-61
2022/03/17 06:14:44;;;;;;;58.85;27.83;;;1.30;99.90;;;;;;5055025;28;20035;-61
2022/03/17 06:17:11;;;;;;;64.30;28.08;;;1.40;99.90;;;;;;5056017;28;20083;-62
2022/03/17 06:19:36;;;;;;;59.30;28.33;;;1.50;99.90;;;;;;5055810;28;20029;-62
2022/03/17 06:22:02;;;;;;;59.00;27.73;;;3.10;99.90;;;;;;5055436;28;20100;-61
2022/03/17 06:24:28;;;;;;;58.08;28.13;;;1.70;99.90;;;;;;5055335;28;20037;-61
2022/03/17 06:26:53;;;;;;;57.60;27.38;;;1.80;99.90;;;;;;5055698;28;20029;-62
2022/03/17 06:29:19;;;;;;;59.08;27.75;;;1.90;99.90;;;;;;5055372;28;20032;-67
2022/03/17 06:31:45;;;;;;;53.45;26.33;;;2.00;99.90;;;;;;5054298;28;20025;-62
2022/03/17 06:34:10;;;;;;;61.15;26.95;;;2.10;99.90;;;;;;5054245;28;20397;-61
2022/03/17 06:36:36;;;;;;;51.63;26.42;;;2.10;99.90;;;;;;5055784;28;20029;-62
2022/03/17 06:39:02;;;;;;;57.55;28.58;;;2.20;99.90;;;;;;5054201;28;20036;-61
2022/03/17 06:41:27;;;;;;;51.13;26.38;;;2.30;99.90;;;;;;5055442;28;20021;-61
2022/03/17 06:43:53;;;;;;;65.38;29.92;;;2.40;99.90;;;;;;5055300;28;20037;-61
2022/03/17 06:46:19;;;;;;;59.05;27.23;;;2.40;99.90;;;;;;5055136;28;20055;-62
2022/03/17 06:48:44;;;;;;;56.50;27.65;;;2.60;99.90;;;;;;5054147;28;20102;-62
2022/03/17 06:51:10;;;;;;;53.97;27.52;;;2.70;99.90;;;;;;5055496;28;20473;-61
2022/03/17 06:53:35;;;;;;;56.03;28.63;;;2.70;99.90;;;;;;5055218;28;20021;-61
2022/03/17 06:56:01;;;;;;;50.38;27.48;;;2.80;99.90;;;;;;5055150;28;20098;-62
2022/03/17 06:58:27;;;;;;;58.47;29.30;;;2.90;99.90;;;;;;5055090;28;20420;-62
2022/03/17 07:00:52;;;;;;;59.38;29.05;;;3.00;99.90;;;;;;5054804;28;20029;-61
2022/03/17 07:03:18;;;;;;;58.58;28.73;;;3.20;99.90;;;;;;5055202;28;20112;-64
2022/03/17 07:05:43;;;;;;;64.07;29.55;;;3.40;99.90;;;;;;5055232;28;20041;-62
2022/03/17 07:08:09;;;;;;;53.85;27.67;;;3.50;99.90;;;;;;5053495;28;20045;-61
2022/03/17 07:10:35;;;;;;;50.33;27.80;;;3.60;99.90;;;;;;5055004;28;20067;-61
2022/03/17 07:13:01;;;;;;;57.95;28.40;;;3.80;99.90;;;;;;5055301;28;20113;-61
2022/03/17 07:15:28;;;;;;;65.40;32.97;;;3.90;99.90;;;;;;5054766;28;20064;-61
2022/03/17 07:17:54;;;;;;;65.60;32.42;;;4.10;99.90;;;;;;5054731;28;20116;-61
2022/03/17 07:20:19;;;;;;;78.63;36.60;;;4.30;99.90;;;;;;5053424;28;20063;-61
2022/03/17 07:22:47;;;;;;;72.00;34.70;;;4.40;99.90;;;;;;5054810;28;20056;-61
2022/03/17 07:25:13;;;;;;;66.70;32.55;;;4.60;99.90;;;;;;5054458;28;20037;-61
2022/03/17 07:27:41;;;;;;;70.53;33.90;;;4.70;99.90;;;;;;5054559;28;20060;-62
2022/03/17 07:30:12;;;;;;;66.03;33.15;;;5.00;99.90;;;;;;5054533;28;20082;-61
2022/03/17 07:32:38;;;;;;;62.47;33.03;;;5.10;99.90;;;;;;5054356;28;20473;-62
2022/03/17 07:35:05;;;;;;;63.55;32.92;;;5.30;99.90;;;;;;5054690;28;20032;-62
2022/03/17 07:37:30;;;;;;;58.28;31.70;;;5.50;99.90;;;;;;5055497;28;20112;-62
2022/03/17 07:39:56;;;;;;;61.63;31.73;;;5.70;99.90;;;;;;5055752;28;20057;-62
2022/03/17 07:42:22;;;;;;;61.50;31.40;;;5.80;99.90;;;;;;5055330;28;20036;-63
2022/03/17 07:44:47;;;;;;;61.78;33.65;;;6.00;99.90;;;;;;5054988;28;20044;-62
2022/03/17 07:47:13;;;;;;;59.45;32.60;;;6.10;99.90;;;;;;5055056;28;20029;-62
2022/03/17 07:49:39;;;;;;;64.70;31.92;;;6.30;99.90;;;;;;5055426;28;20032;-62
2022/03/17 07:52:06;;;;;;;58.30;31.83;;;6.50;99.90;;;;;;5054919;28;20357;-62
2022/03/17 07:54:32;;;;;;;57.63;33.22;;;6.70;99.90;;;;;;5055116;28;20087;-62
2022/03/17 07:56:58;;;;;;;61.58;32.10;;;6.80;99.90;;;;;;5053582;28;20028;-61
2022/03/17 07:59:24;;;;;;;58.33;32.47;;;7.00;99.90;;;;;;5054946;28;20083;-62
2022/03/17 08:01:50;;;;;;;62.92;34.05;;;7.20;99.90;;;;;;5053261;28;20383;-62
2022/03/17 08:04:16;;;;;;;67.15;36.65;;;7.30;99.90;;;;;;5052938;28;20033;-61
2022/03/17 08:06:43;;;;;;;67.55;35.30;;;7.50;99.90;;;;;;5054151;28;20025;-61
2022/03/17 08:09:08;;;;;;;62.08;35.28;;;7.50;99.90;;;;;;5054819;28;20048;-61
2022/03/17 08:11:34;;;;;;;63.60;35.05;;;7.70;99.90;;;;;;5054663;28;20449;-62
2022/03/17 08:14:19;;;;;;;70.18;36.58;;;7.80;99.90;;;;;;5053964;28;20029;-62
2022/03/17 08:16:45;;;;;;;63.45;34.53;;;7.90;99.90;;;;;;5054043;28;20021;-61
2022/03/17 08:19:11;;;;;;;61.15;34.00;;;7.90;99.90;;;;;;5054062;28;20138;-62
2022/03/17 08:21:39;;;;;;;60.60;35.40;;;8.00;99.90;;;;;;5053575;28;20032;-61
2022/03/17 08:24:06;;;;;;;69.95;34.85;;;8.20;99.90;;;;;;5053713;28;20039;-62
2022/03/17 08:26:32;;;;;;;68.30;35.78;;;8.40;99.90;;;;;;5054163;28;20459;-62
2022/03/17 08:28:58;;;;;;;60.88;36.33;;;8.60;99.90;;;;;;5053382;28;20358;-62
2022/03/17 08:31:24;;;;;;;63.83;35.45;;;8.60;99.90;;;;;;5058753;28;20068;-62
2022/03/17 08:33:50;;;;;;;66.70;36.00;;;8.70;99.90;;;;;;5060621;28;20037;-62
2022/03/17 08:36:16;;;;;;;64.22;36.80;;;8.80;99.90;;;;;;5060537;28;20048;-61
2022/03/17 08:38:42;;;;;;;70.00;36.80;;;8.80;99.90;;;;;;5060299;28;20025;-61
2022/03/17 08:41:08;;;;;;;61.20;35.17;;;8.90;99.90;;;;;;5059030;28;20029;-62
2022/03/17 08:43:33;;;;;;;63.92;35.95;;;9.00;99.90;;;;;;5060193;28;20071;-62
2022/03/17 08:51:28;;;;;;;62.35;35.28;;;9.30;99.90;;;;;;5060215;28;20082;-62
2022/03/17 08:53:54;;;;;;;59.22;35.10;;;9.40;99.90;;;;;;5058993;28;20033;-62
2022/03/17 08:56:20;;;;;;;61.75;36.10;;;9.50;99.90;;;;;;5058538;28;20397;-62
2022/03/17 08:58:45;;;;;;;63.63;36.13;;;9.50;99.90;;;;;;5060357;28;20107;-62
2022/03/17 09:01:11;;;;;;;62.08;35.33;;;9.70;99.90;;;;;;5059848;28;20536;-62
2022/03/17 09:03:37;;;;;;;56.67;34.30;;;9.80;99.90;;;;;;5059994;28;20016;-62
2022/03/17 09:06:03;;;;;;;54.53;33.58;;;9.80;99.90;;;;;;5059837;28;20025;-62
2022/03/17 09:08:29;;;;;;;62.88;33.67;;;9.90;99.90;;;;;;5060514;28;20400;-62
2022/03/17 09:10:56;;;;;;;49.78;29.75;;;10.00;99.90;;;;;;5058761;28;20476;-62
2022/03/17 09:13:26;;;;;;;52.97;32.42;;;10.10;99.90;;;;;;5060154;28;20025;-61
2022/03/17 09:15:53;;;;;;;53.55;30.40;;;10.20;99.90;;;;;;5059715;28;20107;-62
2022/03/17 09:18:41;;;;;;;46.22;29.20;;;10.30;99.90;;;;;;5059926;28;20094;-62
2022/03/17 09:21:07;;;;;;;63.50;30.42;;;10.40;99.90;;;;;;5058751;28;20453;-62
2022/03/17 09:23:33;;;;;;;47.85;27.95;;;10.60;99.90;;;;;;5059843;28;20029;-62
2022/03/17 09:25:58;;;;;;;45.95;28.13;;;10.80;99.90;;;;;;5059989;28;20075;-62
2022/03/17 09:28:26;;;;;;;45.20;28.20;;;10.90;99.90;;;;;;5058595;28;20029;-62
2022/03/17 09:30:53;;;;;;;42.72;27.80;;;11.10;99.90;;;;;;5060111;28;20055;-62
2022/03/17 09:33:19;;;;;;;42.90;26.13;;;11.30;99.90;;;;;;5060280;28;20021;-62
2022/03/17 09:35:44;;;;;;;45.28;28.05;;;11.40;99.90;;;;;;5059574;28;20108;-62
2022/03/17 09:40:55;;;;;;;45.22;27.88;;;11.80;99.90;;;;;;5059789;28;20035;-62
2022/03/17 09:43:28;;;;;;;49.38;28.02;;;11.80;99.90;;;;;;5054167;28;20071;-62
2022/03/17 09:45:56;;;;;;;43.55;27.58;;;12.00;99.90;;;;;;5056691;28;20040;-62
2022/03/17 09:48:24;;;;;;;44.35;27.27;;;12.20;99.90;;;;;;5055137;28;20079;-62
2022/03/17 09:50:59;;;;;;;43.78;27.45;;;12.30;99.90;;;;;;5056328;28;20036;-62
2022/03/17 09:53:26;;;;;;;47.92;28.40;;;12.50;99.90;;;;;;5056457;28;20025;-62
2022/03/17 09:55:52;;;;;;;42.90;28.00;;;12.60;99.90;;;;;;5056885;28;20084;-62
2022/03/17 09:58:18;;;;;;;42.30;25.48;;;12.60;99.90;;;;;;5056183;28;20032;-62
2022/03/17 10:00:53;;;;;;;39.83;25.73;;;12.60;99.90;;;;;;5054847;28;20028;-62
2022/03/17 10:03:28;;;;;;;41.13;24.77;;;12.90;99.90;;;;;;5056328;28;20025;-62
2022/03/17 10:05:55;;;;;;;38.90;24.27;;;13.20;99.50;;;;;;5056344;28;20477;-62
2022/03/17 10:08:23;;;;;;;38.90;24.88;;;13.50;98.80;;;;;;5055956;28;20045;-62
2022/03/17 10:10:49;;;;;;;34.03;21.95;;;13.40;97.30;;;;;;5056046;28;20029;-62
2022/03/17 10:13:17;;;;;;;36.15;22.77;;;13.10;95.20;;;;;;5055705;28;20033;-62
2022/03/17 10:16:10;;;;;;;38.45;22.80;;;12.90;96.50;;;;;;5055901;28;20028;-62
2022/03/17 10:18:37;;;;;;;36.70;22.55;;;13.00;97.10;;;;;;5048015;28;20037;-62
2022/03/17 10:21:18;;;;;;;36.70;22.20;;;12.80;95.50;;;;;;5056026;28;20021;-62
2022/03/17 10:24:19;;;;;;;31.20;20.77;;;12.40;96.10;;;;;;5055985;28;20043;-62
2022/03/17 10:26:47;;;;;;;31.90;21.00;;;12.40;97.10;;;;;;5013595;28;20544;-62
2022/03/17 10:29:22;;;;;;;31.20;21.52;;;12.60;95.60;;;;;;5047533;28;20164;-62
2022/03/17 10:31:50;;;;;;;39.03;23.77;;;12.80;97.10;;;;;;5054365;28;20493;-62
2022/03/17 10:34:17;;;;;;;35.97;23.70;;;13.00;95.70;;;;;;5055624;28;20155;-62
2022/03/17 10:36:45;;;;;;;35.78;22.25;;;13.20;96.60;;;;;;5055436;28;20044;-62
2022/03/17 10:39:12;;;;;;;33.22;22.25;;;13.40;94.70;;;;;;5055713;28;20035;-62
2022/03/17 10:41:46;;;;;;;30.55;20.42;;;13.60;94.40;;;;;;5055503;28;20033;-62
2022/03/17 10:44:15;;;;;;;30.90;20.60;;;13.60;92.30;;;;;;5055431;28;20033;-62
2022/03/17 10:47:02;;;;;;;29.42;18.98;;;13.20;91.50;;;;;;5055819;28;20106;-62
2022/03/17 10:49:28;;;;;;;22.33;16.70;;;13.60;90.20;;;;;;5054515;28;20397;-62
2022/03/17 10:51:56;;;;;;;26.63;17.83;;;14.00;79.90;;;;;;5055575;28;20075;-62
2022/03/17 10:54:22;;;;;;;26.58;18.52;;;14.40;80.40;;;;;;5054833;28;20021;-62
2022/03/17 10:56:57;;;;;;;24.80;17.60;;;14.70;76.30;;;;;;5055501;28;20025;-62
2022/03/17 10:59:22;;;;;;;24.02;18.30;;;15.20;72.90;;;;;;5054083;28;20429;-62
2022/03/17 11:01:48;;;;;;;25.45;17.58;;;15.20;62.90;;;;;;5055151;28;20079;-62
2022/03/17 11:04:14;;;;;;;27.58;17.95;;;15.90;61.90;;;;;;5055071;28;20033;-62
2022/03/17 11:06:40;;;;;;;32.17;18.45;;;15.80;60.30;;;;;;5053888;28;20387;-62
2022/03/17 11:09:08;;;;;;;28.30;18.35;;;16.70;59.80;;;;;;5054160;28;20033;-62
2022/03/17 11:11:35;;;;;;;24.63;18.13;;;17.30;56.70;;;;;;5053701;28;20028;-62
2022/03/17 11:14:02;;;;;;;27.10;18.95;;;17.80;54.00;;;;;;5054768;28;20052;-63
2022/03/17 11:16:46;;;;;;;26.55;19.55;;;18.10;50.30;;;;;;5054803;28;20025;-62
2022/03/17 11:19:16;;;;;;;26.98;17.60;;;18.70;48.30;;;;;;5054953;28;20029;-62
2022/03/17 11:21:48;;;;;;;25.35;17.63;;;17.30;47.70;;;;;;5054726;28;20029;-62
2022/03/17 11:24:21;;;;;;;27.23;19.52;;;17.00;49.10;;;;;;5054468;28;20024;-62
2022/03/17 11:26:47;;;;;;;27.50;18.40;;;17.30;50.00;;;;;;5054628;28;20068;-62
2022/03/17 11:29:14;;;;;;;22.73;17.80;;;17.90;47.10;;;;;;5054521;28;20074;-62
2022/03/17 11:31:56;;;;;;;25.45;16.75;;;17.00;46.00;;;;;;5053091;28;20025;-62
2022/03/17 11:34:42;;;;;;;24.67;14.85;;;17.00;45.10;;;;;;5054468;28;20036;-62
2022/03/17 11:37:14;;;;;;;25.02;16.30;;;17.90;44.40;;;;;;5054633;28;20105;-62
2022/03/17 11:40:25;;;;;;;22.17;15.95;;;18.30;41.30;;;;;;5053035;28;20451;-62
2022/03/17 11:43:04;;;;;;;24.00;15.85;;;17.70;40.20;;;;;;5031421;28;20037;-62
2022/03/17 11:48:14;;;;;;;24.08;15.85;;;16.30;43.10;;;;;;5053929;28;20047;-62
2022/03/17 11:50:42;;;;;;;21.95;14.98;;;16.20;43.80;;;;;;5052900;28;20024;-62
2022/03/17 11:53:14;;;;;;;23.48;14.75;;;17.00;40.60;;;;;;5054117;28;20032;-62
2022/03/17 11:55:43;;;;;;;19.27;13.77;;;16.70;41.70;;;;;;5052701;28;20033;-62
2022/03/17 11:58:20;;;;;;;23.88;13.88;;;18.10;40.10;;;;;;5052689;28;20017;-62
2022/03/17 12:01:01;;;;;;;19.15;12.55;;;18.70;35.60;;;;;;5053736;28;20108;-62
2022/03/17 12:03:46;;;;;;;16.30;11.52;;;18.70;35.80;;;;;;5053020;28;20021;-62
2022/03/17 12:06:15;;;;;;;20.42;12.00;;;20.00;33.60;;;;;;5052038;28;20412;-62
2022/03/17 12:08:41;;;;;;;17.13;12.05;;;19.80;31.80;;;;;;5054704;28;20057;-62
2022/03/17 12:11:16;;;;;;;17.23;12.27;;;19.40;31.70;;;;;;5053584;28;20446;-62
2022/03/17 12:14:03;;;;;;;19.05;12.57;;;18.20;33.90;;;;;;5053890;28;20029;-62
2022/03/17 12:16:40;;;;;;;19.70;13.32;;;17.90;35.00;;;;;;5053952;28;20416;-62
2022/03/17 12:19:06;;;;;;;17.75;13.10;;;18.00;34.20;;;;;;5053932;28;20108;-62
2022/03/17 12:22:02;;;;;;;20.42;14.57;;;18.10;34.20;;;;;;5053424;28;20053;-62
2022/03/17 12:24:54;;;;;;;18.67;12.75;;;16.40;35.10;;;;;;5054287;28;20043;-62
2022/03/17 12:27:30;;;;;;;19.65;13.05;;;16.40;36.40;;;;;;5054619;28;20033;-62
2022/03/17 12:30:12;;;;;;;19.85;12.95;;;16.10;36.00;;;;;;5052558;28;20465;-62
2022/03/17 12:32:40;;;;;;;19.13;13.13;;;16.00;36.90;;;;;;5054010;28;20441;-62
2022/03/17 12:35:10;;;;;;;22.60;14.38;;;15.50;38.30;;;;;;5053373;28;20108;-62
2022/03/17 12:37:37;;;;;;;18.50;12.48;;;15.50;39.30;;;;;;5053274;28;20488;-62
2022/03/17 12:40:08;;;;;;;25.92;13.45;;;16.00;38.50;;;;;;5052203;28;20500;-62
2022/03/17 12:42:44;;;;;;;19.05;11.70;;;15.90;37.30;;;;;;5053463;28;20033;-62
2022/03/17 12:45:20;;;;;;;19.42;12.73;;;16.80;37.00;;;;;;5053761;28;20056;-62
2022/03/17 12:47:49;;;;;;;20.83;12.77;;;17.00;37.10;;;;;;5052711;28;20029;-62
2022/03/17 12:50:20;;;;;;;20.92;13.32;;;17.40;36.40;;;;;;5053327;28;20426;-62
2022/03/17 12:52:47;;;;;;;20.45;13.10;;;17.50;35.60;;;;;;5053614;28;20025;-62
2022/03/17 12:55:16;;;;;;;18.80;12.23;;;17.60;36.50;;;;;;5053002;28;20374;-62